createdAt,value
2023-04-15T00:02:21.410Z,87.99
2023-04-15T00:04:49.449Z,87.98
2023-04-15T00:07:17.988Z,87.98
2023-04-15T00:09:46.111Z,87.95
2023-04-15T00:12:13.949Z,88.09
2023-04-15T00:14:41.788Z,87.96
2023-04-15T00:17:09.675Z,88.00
2023-04-15T00:19:37.549Z,87.97
2023-04-15T00:22:06.219Z,88.04
2023-04-15T00:24:34.202Z,87.96
2023-04-15T00:27:01.980Z,88.04
2023-04-15T00:29:30.605Z,87.93
2023-04-15T00:31:58.435Z,87.93
2023-04-15T00:34:27.982Z,87.84
2023-04-15T00:36:55.787Z,87.86
2023-04-15T00:39:23.605Z,87.91
2023-04-15T00:41:52.482Z,87.95
2023-04-15T00:44:20.291Z,87.92
2023-04-15T00:46:50.824Z,87.97
2023-04-15T00:49:19.372Z,87.84
2023-04-15T00:51:47.204Z,87.79
2023-04-15T00:54:16.234Z,87.82
2023-04-15T00:56:44.545Z,87.93
2023-04-15T00:59:15.077Z,87.76
2023-04-15T01:01:44.547Z,87.71
2023-04-15T01:04:13.151Z,87.76
2023-04-15T01:06:41.093Z,87.85
2023-04-15T01:09:08.925Z,87.80
2023-04-15T01:11:36.849Z,87.81
2023-04-15T01:14:04.895Z,87.97
2023-04-15T01:16:32.876Z,87.88
2023-04-15T01:19:01.391Z,87.99
2023-04-15T01:21:30.010Z,87.91
2023-04-15T01:23:58.857Z,87.96
2023-04-15T01:26:27.418Z,87.94
2023-04-15T01:28:56.426Z,88.00
2023-04-15T01:31:25.090Z,87.85
2023-04-15T01:33:52.896Z,87.97
2023-04-15T01:36:20.910Z,88.19
2023-04-15T01:38:48.830Z,88.32
2023-04-15T01:41:16.639Z,88.30
2023-04-15T01:43:45.756Z,88.33
2023-04-15T01:46:13.578Z,88.32
2023-04-15T01:48:42.014Z,88.25
2023-04-15T01:51:09.871Z,88.36
2023-04-15T01:53:37.805Z,88.31
2023-04-15T01:56:07.267Z,88.38
2023-04-15T01:58:35.299Z,88.42
2023-04-15T02:01:04.827Z,88.39
2023-04-15T02:03:33.977Z,88.41
2023-04-15T02:06:01.908Z,88.34
2023-04-15T02:08:30.520Z,88.30
2023-04-15T02:10:58.565Z,88.16
2023-04-15T02:13:26.331Z,88.26
2023-04-15T02:15:55.664Z,88.15
2023-04-15T02:18:23.480Z,88.20
2023-04-15T02:20:54.445Z,88.08
2023-04-15T02:23:22.210Z,88.05
2023-04-15T02:25:53.792Z,88.07
2023-04-15T02:28:22.289Z,88.03
2023-04-15T02:30:54.339Z,87.95
2023-04-15T02:33:22.186Z,87.86
2023-04-15T02:35:49.965Z,87.98
2023-04-15T02:38:18.037Z,88.09
2023-04-15T02:40:46.641Z,88.02
2023-04-15T02:43:14.530Z,88.01
2023-04-15T02:45:43.544Z,88.17
2023-04-15T02:48:11.581Z,88.25
2023-04-15T02:50:40.762Z,88.19
2023-04-15T02:53:09.445Z,88.19
2023-04-15T02:55:37.263Z,88.22
2023-04-15T02:58:05.357Z,88.15
2023-04-15T03:00:33.455Z,88.18
2023-04-15T03:03:06.171Z,88.19
2023-04-15T03:05:34.342Z,88.24
2023-04-15T03:08:03.141Z,88.30
2023-04-15T03:10:31.008Z,88.24
2023-04-15T03:12:58.790Z,88.29
2023-04-15T03:15:27.165Z,88.18
2023-04-15T03:17:55.565Z,88.16
2023-04-15T03:20:23.537Z,88.19
2023-04-15T03:22:51.509Z,88.23
2023-04-15T03:25:20.427Z,88.37
2023-04-15T03:27:48.262Z,88.31
2023-04-15T03:30:16.426Z,88.49
2023-04-15T03:32:44.327Z,88.49
2023-04-15T03:35:12.486Z,88.43
2023-04-15T03:37:40.253Z,88.57
2023-04-15T03:40:09.778Z,88.54
2023-04-15T03:42:37.566Z,88.45
2023-04-15T03:45:06.551Z,88.56
2023-04-15T03:47:34.316Z,88.55
2023-04-15T03:50:02.076Z,88.61
2023-04-15T03:52:29.916Z,88.58
2023-04-15T03:54:57.829Z,88.53
2023-04-15T03:57:25.694Z,88.58
2023-04-15T03:59:53.471Z,88.63
2023-04-15T04:02:21.640Z,88.60
2023-04-15T04:04:49.711Z,88.53
2023-04-15T04:07:18.246Z,88.53
2023-04-15T04:09:47.412Z,88.41
2023-04-15T04:12:15.626Z,88.41
2023-04-15T04:14:43.433Z,88.50
2023-04-15T04:17:11.707Z,88.43
2023-04-15T04:19:39.699Z,88.47
2023-04-15T04:22:07.458Z,88.41
2023-04-15T04:24:35.436Z,88.23
2023-04-15T04:27:03.289Z,88.28
2023-04-15T04:29:31.401Z,88.22
2023-04-15T04:31:59.251Z,88.21
2023-04-15T04:34:27.373Z,88.32
2023-04-15T04:36:55.251Z,88.30
2023-04-15T04:39:23.082Z,88.32
2023-04-15T04:41:52.500Z,88.36
2023-04-15T04:44:20.395Z,88.46
2023-04-15T04:46:48.154Z,88.48
2023-04-15T04:49:16.009Z,88.50
2023-04-15T04:51:44.097Z,88.47
2023-04-15T04:54:11.886Z,88.49
2023-04-15T04:56:39.855Z,88.37
2023-04-15T04:59:07.785Z,88.38
2023-04-15T05:01:35.774Z,88.32
2023-04-15T05:04:05.282Z,88.27
2023-04-15T05:06:33.919Z,88.23
2023-04-15T05:09:01.967Z,88.17
2023-04-15T05:11:30.043Z,88.18
2023-04-15T05:13:59.633Z,88.20
2023-04-15T05:16:27.417Z,88.27
2023-04-15T05:18:55.262Z,88.16
2023-04-15T05:21:23.678Z,88.07
2023-04-15T05:23:51.565Z,88.17
2023-04-15T05:26:19.334Z,88.18
2023-04-15T05:28:47.936Z,88.03
2023-04-15T05:31:16.434Z,87.93
2023-04-15T05:33:44.390Z,87.93
2023-04-15T05:36:12.143Z,87.84
2023-04-15T05:38:39.873Z,87.75
2023-04-15T05:41:07.728Z,87.70
2023-04-15T05:43:35.537Z,87.71
2023-04-15T05:46:03.328Z,87.80
2023-04-15T05:48:31.254Z,87.72
2023-04-15T05:50:59.211Z,87.71
2023-04-15T05:53:26.989Z,87.69
2023-04-15T05:55:54.794Z,87.50
2023-04-15T05:58:22.657Z,87.42
2023-04-15T06:00:50.651Z,87.52
2023-04-15T06:03:18.866Z,87.50
2023-04-15T06:05:46.617Z,87.40
2023-04-15T06:08:14.476Z,87.40
2023-04-15T06:10:42.285Z,87.43
2023-04-15T06:13:10.064Z,87.41
2023-04-15T06:15:37.871Z,87.11
2023-04-15T06:18:05.659Z,87.23
2023-04-15T06:20:33.484Z,87.27
2023-04-15T06:23:01.436Z,87.14
2023-04-15T06:25:29.278Z,87.16
2023-04-15T06:27:57.055Z,87.04
2023-04-15T06:30:24.834Z,87.15
2023-04-15T06:32:53.432Z,87.20
2023-04-15T06:35:22.120Z,87.02
2023-04-15T06:37:49.927Z,87.00
2023-04-15T06:40:17.871Z,86.93
2023-04-15T06:42:46.009Z,86.93
2023-04-15T06:45:14.299Z,86.87
2023-04-15T06:47:42.270Z,86.68
2023-04-15T06:50:10.655Z,86.86
2023-04-15T06:52:38.460Z,86.88
2023-04-15T06:55:07.991Z,86.95
2023-04-15T06:57:36.025Z,87.00
2023-04-15T07:00:05.796Z,86.98
2023-04-15T07:02:34.464Z,86.93
2023-04-15T07:05:02.782Z,86.97
2023-04-15T07:07:30.700Z,86.87
2023-04-15T07:09:58.536Z,86.98
2023-04-15T07:12:26.412Z,86.92
2023-04-15T07:14:54.298Z,86.98
2023-04-15T07:17:22.227Z,87.01
2023-04-15T07:19:50.119Z,87.04
2023-04-15T07:22:17.944Z,86.89
2023-04-15T07:24:46.627Z,86.83
2023-04-15T07:27:14.539Z,86.62
2023-04-15T07:29:42.337Z,86.73
2023-04-15T07:32:10.871Z,86.37
2023-04-15T07:34:38.710Z,86.35
2023-04-15T07:37:06.533Z,86.34
2023-04-15T07:39:34.269Z,86.28
2023-04-15T07:42:02.347Z,85.95
2023-04-15T07:44:30.503Z,85.91
2023-04-15T07:46:58.338Z,85.89
2023-04-15T07:49:26.089Z,85.92
2023-04-15T07:51:53.956Z,85.74
2023-04-15T07:54:21.915Z,85.78
2023-04-15T07:56:49.644Z,85.58
2023-04-15T07:59:17.929Z,85.51
2023-04-15T08:01:45.848Z,85.49
2023-04-15T08:04:14.746Z,85.21
2023-04-15T08:06:44.048Z,85.38
2023-04-15T08:09:11.905Z,85.36
2023-04-15T08:11:39.752Z,85.12
2023-04-15T08:14:07.738Z,85.16
2023-04-15T08:16:35.865Z,84.89
2023-04-15T08:19:04.185Z,84.58
2023-04-15T08:21:32.140Z,84.38
2023-04-15T08:24:00.374Z,84.43
2023-04-15T08:26:28.333Z,84.36
2023-04-15T08:28:56.496Z,83.98
2023-04-15T08:31:27.080Z,83.53
2023-04-15T08:33:56.871Z,83.33
2023-04-15T08:36:24.743Z,83.09
2023-04-15T08:38:52.647Z,82.61
2023-04-15T08:41:26.451Z,82.81
2023-04-15T08:44:02.103Z,82.06
2023-04-15T08:46:34.062Z,82.29
2023-04-15T08:49:05.173Z,81.14
2023-04-15T08:51:33.972Z,81.20
2023-04-15T08:54:03.785Z,81.29
2023-04-15T08:56:33.252Z,80.21
2023-04-15T08:59:02.091Z,79.65
2023-04-15T09:01:30.349Z,79.30
2023-04-15T09:03:59.935Z,79.64
2023-04-15T09:06:27.855Z,79.20
2023-04-15T09:08:55.818Z,77.82
2023-04-15T09:11:23.740Z,78.41
2023-04-15T09:13:52.269Z,78.23
2023-04-15T09:16:20.267Z,77.81
2023-04-15T09:18:48.087Z,77.99
2023-04-15T09:21:18.145Z,76.88
2023-04-15T09:24:01.971Z,77.45
2023-04-15T09:26:33.392Z,76.42
2023-04-15T09:29:13.417Z,77.16
2023-04-15T09:31:42.555Z,77.37
2023-04-15T09:34:10.517Z,76.82
2023-04-15T09:36:57.845Z,76.30
2023-04-15T09:39:25.703Z,76.46
2023-04-15T09:42:09.064Z,76.41
2023-04-15T09:44:37.664Z,76.38
2023-04-15T09:47:06.373Z,76.38
2023-04-15T09:49:34.361Z,76.41
2023-04-15T09:52:06.034Z,75.49
2023-04-15T09:54:37.545Z,75.51
2023-04-15T09:57:10.431Z,74.84
2023-04-15T09:59:38.429Z,74.89
2023-04-15T10:02:10.044Z,74.81
2023-04-15T10:04:41.612Z,74.86
2023-04-15T10:07:12.627Z,75.49
2023-04-15T10:09:40.974Z,76.16
2023-04-15T10:12:09.179Z,75.85
2023-04-15T10:14:38.753Z,76.29
2023-04-15T10:17:08.331Z,76.59
2023-04-15T10:19:38.130Z,76.64
2023-04-15T10:22:07.876Z,76.35
2023-04-15T10:24:37.319Z,75.38
2023-04-15T10:27:06.434Z,75.51
2023-04-15T10:29:35.143Z,75.63
2023-04-15T10:32:03.713Z,74.88
2023-04-15T10:34:32.725Z,74.29
2023-04-15T10:37:05.841Z,74.23
2023-04-15T10:39:34.277Z,74.17
2023-04-15T10:42:16.454Z,74.19
2023-04-15T10:44:56.539Z,74.85
2023-04-15T10:47:24.451Z,74.60
2023-04-15T10:49:58.675Z,74.33
2023-04-15T10:52:29.276Z,73.62
2023-04-15T10:55:24.531Z,73.35
2023-04-15T10:58:00.883Z,74.10
2023-04-15T11:00:31.778Z,73.52
2023-04-15T11:03:08.809Z,73.80
2023-04-15T11:05:39.571Z,73.98
2023-04-15T11:08:08.903Z,73.37
2023-04-15T11:10:39.375Z,72.63
2023-04-15T11:13:09.867Z,72.73
2023-04-15T11:15:41.664Z,71.48
2023-04-15T11:18:25.702Z,71.79
2023-04-15T11:20:57.516Z,72.38
2023-04-15T11:23:51.170Z,72.31
2023-04-15T11:26:19.031Z,72.12
2023-04-15T11:28:47.005Z,72.28
2023-04-15T11:31:20.012Z,70.48
2023-04-15T11:34:06.379Z,71.64
2023-04-15T11:36:34.240Z,71.83
2023-04-15T11:39:02.048Z,71.64
2023-04-15T11:41:30.416Z,71.34
2023-04-15T11:43:58.272Z,70.80
2023-04-15T11:46:31.695Z,71.44
2023-04-15T11:49:00.239Z,70.32
2023-04-15T11:51:34.237Z,69.24
2023-04-15T11:54:02.493Z,69.95
2023-04-15T11:56:30.664Z,70.87
2023-04-15T11:58:59.903Z,70.31
2023-04-15T12:01:43.948Z,69.25
2023-04-15T12:04:25.188Z,69.90
2023-04-15T12:06:53.924Z,70.06
2023-04-15T12:09:21.790Z,70.34
2023-04-15T12:11:53.053Z,69.79
2023-04-15T12:14:29.054Z,69.60
2023-04-15T12:17:06.678Z,67.81
2023-04-15T12:19:43.228Z,67.79
2023-04-15T12:22:16.896Z,67.31
2023-04-15T12:24:48.001Z,67.03
2023-04-15T12:27:17.693Z,66.09
2023-04-15T12:29:45.649Z,66.67
2023-04-15T12:32:15.518Z,66.27
2023-04-15T12:34:50.353Z,65.50
2023-04-15T12:37:18.274Z,66.98
2023-04-15T12:39:49.705Z,66.20
2023-04-15T12:42:18.449Z,65.77
2023-04-15T12:44:47.067Z,65.56
2023-04-15T12:47:15.286Z,64.94
2023-04-15T12:49:43.402Z,65.12
2023-04-15T12:52:11.399Z,65.80
2023-04-15T12:54:39.717Z,65.96
2023-04-15T12:57:07.920Z,65.84
2023-04-15T12:59:36.559Z,66.73
2023-04-15T13:02:04.724Z,65.36
2023-04-15T13:04:33.064Z,64.49
2023-04-15T13:07:02.374Z,63.05
2023-04-15T13:09:31.045Z,62.99
2023-04-15T13:11:59.253Z,62.74
2023-04-15T13:14:27.210Z,61.76
2023-04-15T13:16:55.056Z,62.54
2023-04-15T13:19:22.847Z,60.06
2023-04-15T13:21:51.083Z,60.10
2023-04-15T13:24:19.427Z,60.16
2023-04-15T13:26:50.112Z,60.90
2023-04-15T13:29:18.297Z,59.40
2023-04-15T13:31:46.200Z,58.24
2023-04-15T13:34:14.169Z,58.65
2023-04-15T13:36:42.169Z,58.39
2023-04-15T13:39:09.965Z,57.69
2023-04-15T13:41:38.035Z,56.66
2023-04-15T13:44:06.533Z,58.14
2023-04-15T13:46:34.632Z,58.76
2023-04-15T13:49:02.402Z,58.37
2023-04-15T13:51:30.993Z,58.90
2023-04-15T13:53:58.816Z,59.49
2023-04-15T13:56:26.664Z,58.49
2023-04-15T13:58:58.869Z,58.93
2023-04-15T14:01:27.218Z,57.84
2023-04-15T14:03:56.106Z,57.18
2023-04-15T14:06:24.933Z,57.46
2023-04-15T14:08:53.166Z,57.19
2023-04-15T14:11:21.032Z,56.71
2023-04-15T14:13:48.809Z,57.35
2023-04-15T14:16:16.666Z,55.63
2023-04-15T14:18:44.878Z,55.11
2023-04-15T14:21:12.913Z,56.07
2023-04-15T14:23:41.112Z,55.93
2023-04-15T14:26:08.858Z,55.56
2023-04-15T14:28:38.533Z,55.16
2023-04-15T14:31:06.515Z,53.98
2023-04-15T14:33:34.349Z,55.07
2023-04-15T14:36:02.389Z,54.40
2023-04-15T14:38:30.148Z,54.78
2023-04-15T14:40:58.336Z,55.77
2023-04-15T14:43:26.085Z,54.78
2023-04-15T14:45:53.931Z,52.59
2023-04-15T14:48:22.260Z,55.34
2023-04-15T14:50:50.094Z,55.45
2023-04-15T14:53:17.962Z,54.15
2023-04-15T14:55:46.038Z,53.67
2023-04-15T14:58:13.858Z,53.13
2023-04-15T15:00:44.398Z,51.96
2023-04-15T15:03:13.123Z,53.69
2023-04-15T15:05:43.479Z,53.13
2023-04-15T15:08:12.375Z,53.05
2023-04-15T15:10:49.026Z,53.31
2023-04-15T15:13:19.096Z,53.64
2023-04-15T15:15:49.465Z,54.57
2023-04-15T15:18:19.108Z,53.06
2023-04-15T15:20:47.806Z,53.12
2023-04-15T15:23:15.954Z,53.27
2023-04-15T15:25:44.478Z,54.52
2023-04-15T15:28:13.141Z,54.24
2023-04-15T15:30:41.208Z,54.87
2023-04-15T15:33:09.016Z,54.31
2023-04-15T15:35:37.113Z,54.42
2023-04-15T15:38:05.486Z,55.39
2023-04-15T15:40:34.271Z,55.29
2023-04-15T15:43:02.101Z,54.57
2023-04-15T15:45:30.779Z,55.17
2023-04-15T15:47:59.355Z,55.50
2023-04-15T15:50:27.434Z,55.33
2023-04-15T15:52:55.576Z,55.27
2023-04-15T15:55:25.311Z,54.84
2023-04-15T15:57:54.338Z,55.00
2023-04-15T16:00:23.286Z,53.24
2023-04-15T16:03:06.895Z,54.64
2023-04-15T16:05:36.471Z,53.95
2023-04-15T16:08:04.802Z,53.59
2023-04-15T16:10:32.890Z,53.58
2023-04-15T16:13:00.897Z,53.41
2023-04-15T16:15:28.825Z,53.98
2023-04-15T16:17:56.652Z,53.20
2023-04-15T16:20:24.592Z,52.17
2023-04-15T16:22:52.424Z,52.40
2023-04-15T16:25:20.393Z,51.72
2023-04-15T16:27:59.350Z,51.92
2023-04-15T16:30:29.123Z,52.00
2023-04-15T16:32:57.863Z,52.27
2023-04-15T16:35:25.827Z,52.35
2023-04-15T16:37:53.722Z,53.56
2023-04-15T16:40:21.680Z,53.58
2023-04-15T16:42:50.236Z,53.47
2023-04-15T16:45:18.806Z,53.84
2023-04-15T16:47:46.712Z,54.22
2023-04-15T16:50:14.688Z,54.95
2023-04-15T16:52:42.592Z,55.66
2023-04-15T16:55:11.048Z,56.28
2023-04-15T16:58:01.157Z,56.23
2023-04-15T17:00:31.778Z,56.15
2023-04-15T17:03:01.198Z,56.63
2023-04-15T17:05:31.356Z,56.79
2023-04-15T17:08:00.062Z,55.65
2023-04-15T17:10:29.173Z,55.96
2023-04-15T17:13:00.216Z,55.33
2023-04-15T17:15:29.845Z,55.92
2023-04-15T17:17:57.809Z,55.59
2023-04-15T17:20:26.631Z,54.81
2023-04-15T17:22:54.595Z,54.35
2023-04-15T17:25:24.404Z,55.03
2023-04-15T17:27:53.288Z,54.16
2023-04-15T17:30:21.474Z,54.57
2023-04-15T17:32:51.533Z,55.41
2023-04-15T17:35:19.928Z,55.88
2023-04-15T17:37:47.821Z,55.46
2023-04-15T17:40:15.617Z,55.71
2023-04-15T17:42:43.568Z,55.60
2023-04-15T17:45:11.726Z,55.82
2023-04-15T17:47:39.795Z,54.72
2023-04-15T17:50:08.368Z,54.59
2023-04-15T17:52:36.388Z,54.60
2023-04-15T17:55:04.718Z,55.22
2023-04-15T17:57:32.527Z,55.05
2023-04-15T18:00:00.343Z,55.38
2023-04-15T18:02:28.278Z,55.66
2023-04-15T18:04:56.783Z,55.79
2023-04-15T18:07:24.944Z,56.10
2023-04-15T18:09:56.051Z,55.97
2023-04-15T18:12:24.104Z,56.14
2023-04-15T18:14:52.052Z,56.55
2023-04-15T18:17:20.549Z,56.80
2023-04-15T18:19:48.652Z,56.91
2023-04-15T18:22:16.648Z,57.48
2023-04-15T18:24:44.522Z,57.38
2023-04-15T18:27:12.492Z,57.98
2023-04-15T18:29:40.290Z,58.19
2023-04-15T18:32:08.321Z,58.50
2023-04-15T18:34:36.269Z,58.76
2023-04-15T18:37:05.420Z,59.27
2023-04-15T18:39:33.260Z,59.48
2023-04-15T18:42:02.204Z,59.72
2023-04-15T18:44:30.546Z,60.23
2023-04-15T18:46:58.410Z,60.45
2023-04-15T18:49:27.393Z,60.49
2023-04-15T18:51:55.676Z,60.78
2023-04-15T18:54:24.833Z,60.91
2023-04-15T18:56:53.526Z,61.31
2023-04-15T18:59:30.289Z,61.80
2023-04-15T19:02:01.732Z,61.97
2023-04-15T19:04:30.886Z,62.13
2023-04-15T19:06:59.225Z,62.53
2023-04-15T19:09:29.316Z,63.37
2023-04-15T19:11:57.619Z,63.28
2023-04-15T19:14:26.494Z,63.58
2023-04-15T19:16:54.767Z,63.84
2023-04-15T19:19:22.745Z,64.83
2023-04-15T19:21:51.445Z,65.38
2023-04-15T19:24:20.713Z,65.90
2023-04-15T19:26:51.587Z,66.07
2023-04-15T19:29:20.875Z,66.41
2023-04-15T19:31:50.203Z,66.63
2023-04-15T19:34:19.321Z,66.89
2023-04-15T19:36:48.622Z,67.08
2023-04-15T19:39:18.304Z,67.29
2023-04-15T19:41:47.765Z,67.65
2023-04-15T19:44:17.069Z,67.86
2023-04-15T19:46:50.432Z,68.26
2023-04-15T19:49:20.226Z,68.46
2023-04-15T19:51:53.419Z,68.63
2023-04-15T19:54:23.296Z,69.02
2023-04-15T19:56:51.743Z,69.46
2023-04-15T19:59:19.733Z,69.61
2023-04-15T20:01:48.049Z,69.85
2023-04-15T20:04:16.244Z,70.22
2023-04-15T20:06:44.186Z,70.64
2023-04-15T20:09:12.339Z,71.12
2023-04-15T20:12:46.653Z,71.46
2023-04-15T20:14:29.331Z,71.74
2023-04-15T20:16:57.339Z,72.04
2023-04-15T20:19:25.142Z,72.23
2023-04-15T20:21:54.214Z,72.21
2023-04-15T20:24:24.347Z,72.38
2023-04-15T20:26:52.992Z,72.55
2023-04-15T20:29:20.852Z,72.76
2023-04-15T20:31:48.723Z,72.79
2023-04-15T20:34:16.702Z,73.03
2023-04-15T20:36:44.561Z,73.30
2023-04-15T20:39:12.410Z,73.58
2023-04-15T20:41:40.427Z,73.81
2023-04-15T20:44:08.257Z,73.58
2023-04-15T20:46:36.886Z,73.87
2023-04-15T20:49:05.083Z,74.01
2023-04-15T20:51:37.631Z,74.33
2023-04-15T20:54:06.878Z,74.57
2023-04-15T20:56:35.016Z,74.65
2023-04-15T20:59:04.125Z,74.87
2023-04-15T21:01:33.613Z,74.91
2023-04-15T21:04:02.421Z,74.91
2023-04-15T21:06:31.898Z,74.95
2023-04-15T21:09:01.748Z,75.04
2023-04-15T21:11:53.217Z,75.02
2023-04-15T21:14:22.248Z,75.25
2023-04-15T21:16:50.458Z,75.39
2023-04-15T21:19:18.460Z,75.71
2023-04-15T21:21:47.524Z,75.84
2023-04-15T21:24:16.965Z,75.93
2023-04-15T21:26:46.401Z,75.90
2023-04-15T21:29:15.526Z,76.00
2023-04-15T21:31:43.934Z,76.13
2023-04-15T21:34:12.674Z,76.27
2023-04-15T21:36:40.854Z,76.28
2023-04-15T21:39:08.707Z,76.34
2023-04-15T21:41:38.163Z,76.21
2023-04-15T21:44:06.444Z,76.28
2023-04-15T21:46:35.540Z,76.14
2023-04-15T21:49:04.005Z,76.56
2023-04-15T21:51:32.809Z,76.48
2023-04-15T21:54:00.646Z,76.55
2023-04-15T21:56:28.484Z,76.50
2023-04-15T21:58:58.059Z,76.55
2023-04-15T22:01:26.838Z,76.91
2023-04-15T22:03:55.082Z,76.89
2023-04-15T22:06:23.753Z,76.83
2023-04-15T22:08:57.483Z,77.05
2023-04-15T22:11:30.708Z,77.34
2023-04-15T22:13:59.067Z,77.40
2023-04-15T22:16:27.155Z,77.05
2023-04-15T22:18:56.034Z,77.09
2023-04-15T22:21:24.205Z,77.04
2023-04-15T22:23:53.042Z,77.25
2023-04-15T22:26:40.882Z,77.40
2023-04-15T22:29:08.766Z,77.52
2023-04-15T22:31:36.842Z,77.29
2023-04-15T22:34:04.758Z,77.15
2023-04-15T22:36:32.661Z,77.08
2023-04-15T22:39:00.557Z,77.21
2023-04-15T22:41:28.326Z,77.35
2023-04-15T22:43:56.125Z,77.53
2023-04-15T22:46:24.007Z,77.71
2023-04-15T22:48:54.117Z,78.07
2023-04-15T22:51:29.235Z,78.45
2023-04-15T22:53:57.373Z,78.61
2023-04-15T22:56:25.792Z,78.65
2023-04-15T22:58:53.529Z,78.68
2023-04-15T23:01:21.411Z,78.76
2023-04-15T23:03:57.042Z,78.76
2023-04-15T23:06:34.311Z,78.61
2023-04-15T23:09:02.253Z,78.60
2023-04-15T23:11:30.171Z,78.49
2023-04-15T23:13:58.040Z,78.55
2023-04-15T23:16:26.073Z,78.41
2023-04-15T23:18:54.582Z,78.46
2023-04-15T23:21:23.233Z,78.38
2023-04-15T23:23:52.722Z,78.61
2023-04-15T23:26:20.519Z,78.36
2023-04-15T23:28:48.319Z,78.30
2023-04-15T23:31:16.332Z,78.65
2023-04-15T23:33:44.304Z,78.74
2023-04-15T23:36:12.259Z,78.82
2023-04-15T23:38:40.049Z,78.84
2023-04-15T23:41:09.224Z,78.74
2023-04-15T23:43:37.127Z,78.91
2023-04-15T23:46:05.373Z,79.11
2023-04-15T23:48:33.354Z,78.91
2023-04-15T23:51:01.732Z,79.08
2023-04-15T23:53:32.464Z,79.08
2023-04-15T23:56:00.363Z,79.10
2023-04-15T23:58:28.221Z,79.27
